Time;durP1;ratioP1;P1;durP2;ratioP2;P2;SDS_P1;SDS_P2;PMS_P1;PMS_P2;Temp;Humidity;BMP_temperature;BMP_pressure;BME280_temperature;BME280_humidity;BME280_pressure;Samples;Min_cycle;Max_cycle;Signal;HPM_P1;HPM_P2
2023/08/24 00:02:16;;;;;;;;;9.25;8.00;;;;;;;;5037148;28;45563;-75
2023/08/24 00:04:42;;;;;;;;;8.75;8.75;;;;;;;;5046450;28;45506;-75
2023/08/24 00:07:07;;;;;;;;;8.25;6.75;;;;;;;;5053140;28;45450;-74
2023/08/24 00:09:33;;;;;;;;;10.33;10.00;;;;;;;;5036376;28;45427;-75
2023/08/24 00:11:58;;;;;;;;;13.67;11.33;;;;;;;;5053292;28;46595;-74
2023/08/24 00:14:23;;;;;;;;;13.00;13.00;;;;;;;;5054436;28;45427;-74
2023/08/24 00:16:49;;;;;;;;;13.67;11.67;;;;;;;;5035786;28;46913;-74
2023/08/24 00:19:14;;;;;;;;;14.33;12.00;;;;;;;;5036623;28;45791;-74
2023/08/24 00:21:39;;;;;;;;;8.25;8.25;;;;;;;;5035864;28;45363;-73
2023/08/24 00:24:08;;;;;;;;;8.67;8.67;;;;;;;;5052324;28;45590;-73
2023/08/24 00:26:33;;;;;;;;;8.00;6.33;;;;;;;;5054166;28;46430;-74
2023/08/24 00:28:59;;;;;;;;;11.00;11.00;;;;;;;;5057401;28;46048;-74
2023/08/24 00:31:24;;;;;;;;;7.25;6.25;;;;;;;;5034988;28;45562;-74
2023/08/24 00:33:53;;;;;;;;;8.50;8.50;;;;;;;;5051810;28;45470;-74
2023/08/24 00:36:18;;;;;;;;;7.50;7.50;;;;;;;;5036013;28;46627;-73
2023/08/24 00:38:45;;;;;;;;;10.25;8.75;;;;;;;;5039187;28;45393;-74
2023/08/24 00:41:22;;;;;;;;;10.00;7.75;;;;;;;;5049150;28;45842;-74
2023/08/24 00:43:47;;;;;;;;;7.75;7.75;;;;;;;;5033919;28;45356;-74
2023/08/24 00:46:13;;;;;;;;;10.25;8.00;;;;;;;;5034817;28;46993;-74
2023/08/24 00:48:38;;;;;;;;;12.00;9.50;;;;;;;;5053537;28;45504;-74
2023/08/24 00:51:04;;;;;;;;;9.50;8.00;;;;;;;;5059903;28;45410;-74
2023/08/24 00:53:30;;;;;;;;;8.00;7.00;;;;;;;;5051969;28;45774;-73
2023/08/24 00:55:56;;;;;;;;;5.50;4.50;;;;;;;;5035077;28;46771;-73
2023/08/24 00:58:21;;;;;;;;;10.00;8.50;;;;;;;;5057956;28;45711;-75
2023/08/24 01:00:48;;;;;;;;;11.00;8.00;;;;;;;;5054063;28;45441;-74
2023/08/24 01:03:13;;;;;;;;;7.75;7.75;;;;;;;;5052927;28;45861;-76
2023/08/24 01:05:39;;;;;;;;;11.25;10.75;;;;;;;;5033537;28;47060;-75
2023/08/24 01:08:04;;;;;;;;;9.25;9.25;;;;;;;;5044625;28;45398;-74
2023/08/24 01:10:35;;;;;;;;;10.50;9.25;;;;;;;;5052473;28;45466;-75
2023/08/24 01:13:11;;;;;;;;;9.50;8.25;;;;;;;;5052326;28;45406;-74
2023/08/24 01:15:37;;;;;;;;;8.00;6.25;;;;;;;;5032599;28;47062;-75
2023/08/24 01:18:05;;;;;;;;;10.75;9.50;;;;;;;;5051079;28;45786;-75
2023/08/24 01:20:33;;;;;;;;;8.25;8.25;;;;;;;;5058236;28;45403;-74
2023/08/24 01:23:10;;;;;;;;;9.50;8.00;;;;;;;;5037871;28;46331;-74
2023/08/24 01:25:38;;;;;;;;;10.50;9.00;;;;;;;;5056223;28;46384;-76
2023/08/24 01:28:05;;;;;;;;;13.33;10.67;;;;;;;;5055911;28;45795;-73
2023/08/24 01:30:30;;;;;;;;;6.25;6.00;;;;;;;;5039000;28;45439;-74
2023/08/24 01:32:56;;;;;;;;;10.50;8.75;;;;;;;;5035715;28;46183;-75
2023/08/24 01:35:21;;;;;;;;;11.50;10.50;;;;;;;;5050607;28;45396;-75
2023/08/24 01:37:46;;;;;;;;;10.25;9.00;;;;;;;;5056530;28;45587;-75
2023/08/24 01:40:23;;;;;;;;;9.50;8.00;;;;;;;;5055325;28;45644;-74
2023/08/24 01:42:51;;;;;;;;;10.25;9.00;;;;;;;;5037017;28;47397;-75
2023/08/24 01:45:18;;;;;;;;;9.67;9.67;;;;;;;;5056594;28;45500;-75
2023/08/24 01:47:45;;;;;;;;;11.33;11.33;;;;;;;;5056531;28;45693;-75
2023/08/24 01:50:10;;;;;;;;;12.00;11.50;;;;;;;;5057091;28;45761;-73
2023/08/24 01:52:36;;;;;;;;;11.25;11.25;;;;;;;;5056975;28;45761;-73
2023/08/24 01:55:01;;;;;;;;;5.50;5.50;;;;;;;;5056554;28;46015;-74
2023/08/24 01:57:26;;;;;;;;;10.00;10.00;;;;;;;;5056871;28;45776;-75
2023/08/24 01:59:51;;;;;;;;;11.00;11.00;;;;;;;;5038367;28;45901;-75
2023/08/24 02:02:16;;;;;;;;;7.33;7.33;;;;;;;;5061315;28;46074;-75
2023/08/24 02:04:42;;;;;;;;;7.25;7.25;;;;;;;;5038433;28;47574;-74
2023/08/24 02:07:07;;;;;;;;;8.67;7.00;;;;;;;;5059015;28;45349;-77
2023/08/24 02:09:32;;;;;;;;;7.75;6.50;;;;;;;;5056425;28;45324;-75
2023/08/24 02:11:57;;;;;;;;;9.33;8.33;;;;;;;;5056261;28;45681;-73
2023/08/24 02:14:23;;;;;;;;;6.33;6.33;;;;;;;;5053294;28;46321;-75
2023/08/24 02:16:48;;;;;;;;;11.33;8.33;;;;;;;;5056157;28;45530;-75
2023/08/24 02:19:13;;;;;;;;;12.33;9.33;;;;;;;;5056407;28;45343;-75
2023/08/24 02:21:39;;;;;;;;;14.33;11.33;;;;;;;;5038008;28;45975;-75
2023/08/24 02:24:05;;;;;;;;;12.67;10.67;;;;;;;;5050906;28;45572;-73
2023/08/24 02:26:30;;;;;;;;;5.50;5.25;;;;;;;;5055680;28;45464;-74
2023/08/24 02:28:57;;;;;;;;;8.33;7.33;;;;;;;;5040207;28;45377;-74
2023/08/24 02:31:22;;;;;;;;;11.33;10.33;;;;;;;;5055863;28;45528;-73
2023/08/24 02:33:48;;;;;;;;;12.00;10.33;;;;;;;;5055963;28;45549;-73
2023/08/24 02:36:14;;;;;;;;;9.00;6.67;;;;;;;;5055846;28;45434;-74
2023/08/24 02:38:39;;;;;;;;;11.67;10.00;;;;;;;;5051103;28;45500;-75
2023/08/24 02:41:05;;;;;;;;;12.00;9.00;;;;;;;;5055516;28;45391;-74
2023/08/24 02:43:30;;;;;;;;;10.33;9.67;;;;;;;;5069159;28;45403;-75
2023/08/24 02:45:59;;;;;;;;;13.67;12.00;;;;;;;;5054990;28;45366;-73
2023/08/24 02:48:25;;;;;;;;;10.25;9.00;;;;;;;;5055496;28;45576;-75
2023/08/24 02:50:50;;;;;;;;;7.75;6.75;;;;;;;;5055632;28;45472;-73
2023/08/24 02:53:15;;;;;;;;;8.75;8.75;;;;;;;;5049485;28;45426;-75
2023/08/24 02:55:40;;;;;;;;;10.25;9.25;;;;;;;;5054361;28;45404;-74
2023/08/24 02:58:06;;;;;;;;;9.00;7.75;;;;;;;;5036122;28;45599;-74
2023/08/24 03:00:31;;;;;;;;;8.00;7.25;;;;;;;;5037334;28;47319;-73
2023/08/24 03:02:56;;;;;;;;;8.33;8.33;;;;;;;;5056908;28;46333;-74
2023/08/24 03:05:22;;;;;;;;;13.00;11.67;;;;;;;;5054696;28;46766;-75
2023/08/24 03:07:47;;;;;;;;;11.67;11.67;;;;;;;;5054852;28;45659;-75
2023/08/24 03:10:12;;;;;;;;;7.33;7.33;;;;;;;;5046886;28;45566;-75
2023/08/24 03:12:37;;;;;;;;;13.00;11.33;;;;;;;;5051115;28;46513;-74
2023/08/24 03:15:03;;;;;;;;;9.33;9.33;;;;;;;;5054995;28;45813;-75
2023/08/24 03:17:28;;;;;;;;;15.00;10.67;;;;;;;;5053371;28;45583;-74
2023/08/24 03:19:53;;;;;;;;;11.00;11.00;;;;;;;;5050758;28;45470;-74
2023/08/24 03:22:19;;;;;;;;;9.50;9.50;;;;;;;;5023942;28;47338;-75
2023/08/24 03:24:44;;;;;;;;;11.50;9.50;;;;;;;;5054132;28;45693;-75
2023/08/24 03:27:09;;;;;;;;;9.25;9.25;;;;;;;;5032742;28;45853;-74
2023/08/24 03:29:34;;;;;;;;;16.00;13.00;;;;;;;;5050777;28;45656;-74
2023/08/24 03:31:59;;;;;;;;;13.00;9.75;;;;;;;;5054348;28;46153;-75
2023/08/24 03:34:25;;;;;;;;;8.25;8.25;;;;;;;;5053899;28;45681;-75
2023/08/24 03:36:50;;;;;;;;;8.75;8.25;;;;;;;;5036075;28;45543;-72
2023/08/24 03:39:16;;;;;;;;;12.33;11.33;;;;;;;;5052449;28;45333;-74
2023/08/24 03:41:41;;;;;;;;;11.25;11.25;;;;;;;;5034216;28;45459;-74
2023/08/24 03:44:06;;;;;;;;;13.00;10.33;;;;;;;;5036052;28;45743;-73
2023/08/24 03:46:31;;;;;;;;;7.00;7.00;;;;;;;;5053838;28;45507;-74
2023/08/24 03:48:57;;;;;;;;;10.00;9.00;;;;;;;;5054669;28;45738;-75
2023/08/24 03:51:22;;;;;;;;;9.00;9.00;;;;;;;;5054263;28;45553;-75
2023/08/24 03:53:47;;;;;;;;;9.75;9.75;;;;;;;;5035232;28;45557;-75
2023/08/24 03:56:12;;;;;;;;;6.00;4.33;;;;;;;;5050788;28;45442;-75
2023/08/24 03:58:38;;;;;;;;;9.00;7.67;;;;;;;;5054030;28;45946;-77
2023/08/24 04:01:03;;;;;;;;;9.33;9.33;;;;;;;;5058946;28;45665;-74
2023/08/24 04:03:28;;;;;;;;;9.00;7.67;;;;;;;;5035158;28;45768;-74
2023/08/24 04:05:53;;;;;;;;;8.00;8.00;;;;;;;;5030938;28;45812;-75
2023/08/24 04:08:19;;;;;;;;;10.33;10.33;;;;;;;;5053273;28;45961;-74
2023/08/24 04:10:44;;;;;;;;;10.67;9.67;;;;;;;;5054696;28;46159;-74
2023/08/24 04:13:09;;;;;;;;;12.25;10.25;;;;;;;;5053523;28;45829;-75
2023/08/24 04:15:35;;;;;;;;;15.00;10.33;;;;;;;;5034551;28;45539;-74
2023/08/24 04:18:00;;;;;;;;;9.67;8.67;;;;;;;;5033894;28;46146;-75
2023/08/24 04:20:25;;;;;;;;;11.00;10.00;;;;;;;;5035676;28;46938;-75
2023/08/24 04:22:50;;;;;;;;;10.33;10.33;;;;;;;;5036549;28;45598;-74
2023/08/24 04:25:15;;;;;;;;;12.33;11.67;;;;;;;;5054307;28;45587;-75
2023/08/24 04:27:41;;;;;;;;;13.00;9.67;;;;;;;;5053488;28;45627;-75
2023/08/24 04:30:11;;;;;;;;;14.33;12.00;;;;;;;;5035836;28;47190;-76
2023/08/24 04:32:36;;;;;;;;;11.25;10.25;;;;;;;;5034188;28;45411;-75
2023/08/24 04:35:02;;;;;;;;;44.33;36.33;;;;;;;;5035063;28;45498;-74
2023/08/24 04:37:28;;;;;;;;;12.33;10.00;;;;;;;;5052687;28;45479;-75
2023/08/24 04:39:53;;;;;;;;;7.67;7.67;;;;;;;;5053535;28;45316;-75
2023/08/24 04:42:18;;;;;;;;;9.67;9.33;;;;;;;;5053479;28;45700;-74
2023/08/24 04:44:43;;;;;;;;;28.00;20.67;;;;;;;;5050142;28;46875;-76
2023/08/24 04:47:09;;;;;;;;;13.00;11.33;;;;;;;;5051441;28;45749;-74
2023/08/24 04:49:35;;;;;;;;;11.00;11.00;;;;;;;;5053457;28;45448;-76
2023/08/24 04:52:01;;;;;;;;;13.33;12.00;;;;;;;;5034469;28;46671;-77
2023/08/24 04:54:26;;;;;;;;;15.00;14.00;;;;;;;;5052047;28;45699;-75
2023/08/24 04:56:51;;;;;;;;;10.33;10.33;;;;;;;;5034377;28;45711;-74
2023/08/24 04:59:16;;;;;;;;;8.00;7.00;;;;;;;;5032991;28;48061;-75
2023/08/24 05:01:42;;;;;;;;;12.00;11.67;;;;;;;;5038794;28;45414;-75
2023/08/24 05:04:07;;;;;;;;;11.00;11.00;;;;;;;;5053521;28;45458;-75
2023/08/24 05:06:32;;;;;;;;;9.50;9.50;;;;;;;;5034696;28;46889;-75
2023/08/24 05:08:57;;;;;;;;;11.67;11.00;;;;;;;;5034822;28;47397;-74
2023/08/24 05:11:28;;;;;;;;;11.67;11.67;;;;;;;;5052290;28;45437;-75
2023/08/24 05:13:54;;;;;;;;;14.33;11.33;;;;;;;;5051939;28;45591;-75
2023/08/24 05:16:19;;;;;;;;;10.67;10.33;;;;;;;;5018185;28;47254;-75
2023/08/24 05:18:44;;;;;;;;;10.33;10.33;;;;;;;;5031616;28;48238;-75
2023/08/24 05:21:09;;;;;;;;;13.75;11.25;;;;;;;;5051128;28;45779;-74
2023/08/24 05:23:35;;;;;;;;;8.25;8.25;;;;;;;;5052460;28;45488;-75
2023/08/24 05:26:01;;;;;;;;;12.67;12.67;;;;;;;;5051624;28;45988;-73
2023/08/24 05:28:26;;;;;;;;;10.67;10.67;;;;;;;;5057091;28;46717;-74
2023/08/24 05:30:53;;;;;;;;;12.33;12.33;;;;;;;;5050760;28;46697;-74
2023/08/24 05:33:22;;;;;;;;;12.00;12.00;;;;;;;;5045126;28;45734;-73
2023/08/24 05:35:48;;;;;;;;;14.33;10.33;;;;;;;;5042533;28;45627;-74
2023/08/24 05:38:14;;;;;;;;;11.25;10.50;;;;;;;;5042344;28;46071;-75
2023/08/24 05:40:41;;;;;;;;;13.00;11.00;;;;;;;;5047280;28;45662;-73
2023/08/24 05:43:06;;;;;;;;;10.00;7.75;;;;;;;;5048427;28;45802;-74
2023/08/24 05:45:31;;;;;;;;;14.33;10.67;;;;;;;;5023578;28;45715;-74
2023/08/24 05:47:57;;;;;;;;;9.25;8.00;;;;;;;;5036367;28;46059;-76
2023/08/24 05:50:22;;;;;;;;;9.25;9.25;;;;;;;;5041575;28;45486;-75
2023/08/24 05:52:47;;;;;;;;;11.50;10.00;;;;;;;;5045835;28;45832;-74
2023/08/24 05:55:12;;;;;;;;;13.50;12.75;;;;;;;;5034984;28;45779;-75
2023/08/24 05:57:38;;;;;;;;;9.50;9.50;;;;;;;;5032185;28;45931;-74
2023/08/24 06:00:09;;;;;;;;;11.25;9.75;;;;;;;;5042457;28;45717;-75
2023/08/24 06:02:34;;;;;;;;;9.75;9.00;;;;;;;;5038733;28;45451;-75
2023/08/24 06:04:59;;;;;;;;;9.00;8.00;;;;;;;;5033946;28;45421;-75
2023/08/24 06:07:24;;;;;;;;;10.75;9.25;;;;;;;;5045895;28;45473;-75
2023/08/24 06:09:49;;;;;;;;;9.00;8.00;;;;;;;;5043199;28;45712;-74
2023/08/24 06:12:15;;;;;;;;;9.00;9.00;;;;;;;;5041203;28;45574;-75
2023/08/24 06:14:40;;;;;;;;;10.25;10.25;;;;;;;;5045195;28;45893;-75
2023/08/24 06:17:05;;;;;;;;;9.00;9.00;;;;;;;;5045174;28;46392;-73
2023/08/24 06:19:30;;;;;;;;;7.00;7.00;;;;;;;;5038755;28;45603;-75
2023/08/24 06:21:56;;;;;;;;;9.00;8.00;;;;;;;;5053970;28;46007;-74
2023/08/24 06:24:21;;;;;;;;;5.50;5.50;;;;;;;;5046554;28;46565;-74
2023/08/24 06:26:46;;;;;;;;;10.50;10.50;;;;;;;;5042194;28;46557;-75
2023/08/24 06:29:11;;;;;;;;;9.25;9.25;;;;;;;;5056456;27;45815;-74
2023/08/24 06:31:37;;;;;;;;;9.50;9.50;;;;;;;;5049281;28;45525;-75
2023/08/24 06:34:02;;;;;;;;;10.75;10.00;;;;;;;;5047411;28;45803;-73
2023/08/24 06:36:28;;;;;;;;;11.25;9.75;;;;;;;;5032229;28;46740;-75
2023/08/24 06:38:53;;;;;;;;;8.25;8.25;;;;;;;;5030742;28;45837;-75
2023/08/24 06:41:19;;;;;;;;;12.25;10.75;;;;;;;;5034517;28;45741;-76
2023/08/24 06:43:44;;;;;;;;;12.00;10.00;;;;;;;;5045880;28;45443;-76
2023/08/24 06:46:10;;;;;;;;;10.75;8.50;;;;;;;;5040724;28;46741;-76
2023/08/24 06:48:35;;;;;;;;;9.25;8.00;;;;;;;;5030771;28;46147;-76
2023/08/24 06:51:00;;;;;;;;;10.50;10.50;;;;;;;;5047239;28;45534;-80
2023/08/24 06:53:26;;;;;;;;;12.50;9.00;;;;;;;;5039810;28;45987;-75
2023/08/24 06:55:55;;;;;;;;;9.75;8.25;;;;;;;;5047092;28;45755;-76
2023/08/24 06:58:20;;;;;;;;;12.25;10.50;;;;;;;;5043892;28;45953;-75
2023/08/24 07:00:46;;;;;;;;;8.25;8.25;;;;;;;;5044333;28;45812;-75
2023/08/24 07:03:11;;;;;;;;;14.00;9.00;;;;;;;;5043119;28;46020;-76
2023/08/24 07:05:36;;;;;;;;;8.50;8.50;;;;;;;;5036171;28;46523;-76
2023/08/24 07:08:03;;;;;;;;;9.00;8.00;;;;;;;;5028942;28;45912;-76
2023/08/24 07:10:28;;;;;;;;;9.50;9.00;;;;;;;;5040006;28;45799;-77
2023/08/24 07:12:53;;;;;;;;;11.75;10.50;;;;;;;;5043284;28;45791;-77
2023/08/24 07:15:18;;;;;;;;;10.00;9.00;;;;;;;;5045424;28;45881;-78
2023/08/24 07:17:44;;;;;;;;;10.00;9.00;;;;;;;;5034911;28;45584;-78
2023/08/24 07:20:09;;;;;;;;;10.25;9.25;;;;;;;;5045082;28;45974;-77
2023/08/24 07:22:35;;;;;;;;;9.75;9.75;;;;;;;;5031142;28;45599;-78
2023/08/24 07:25:04;;;;;;;;;10.25;10.25;;;;;;;;5035346;28;45770;-78
2023/08/24 07:27:30;;;;;;;;;10.50;8.00;;;;;;;;5021124;28;45801;-78
2023/08/24 07:29:55;;;;;;;;;10.00;7.00;;;;;;;;5046515;28;45993;-78
2023/08/24 07:32:20;;;;;;;;;8.75;8.00;;;;;;;;5052062;28;45704;-78
2023/08/24 07:34:45;;;;;;;;;10.00;10.00;;;;;;;;5037737;28;47982;-74
2023/08/24 07:37:10;;;;;;;;;10.75;9.00;;;;;;;;5047136;28;45713;-76
2023/08/24 07:39:36;;;;;;;;;8.25;8.25;;;;;;;;5031048;28;46171;-76
2023/08/24 07:42:01;;;;;;;;;12.00;10.50;;;;;;;;5037940;28;46026;-75
2023/08/24 07:44:26;;;;;;;;;10.75;10.50;;;;;;;;5046417;28;46675;-76
2023/08/24 07:46:51;;;;;;;;;10.75;9.50;;;;;;;;5046321;28;45985;-77
2023/08/24 07:49:16;;;;;;;;;9.00;9.00;;;;;;;;5044141;28;45596;-76
2023/08/24 07:51:42;;;;;;;;;9.00;9.00;;;;;;;;5033593;28;46001;-77
2023/08/24 07:54:08;;;;;;;;;12.50;10.25;;;;;;;;5032686;28;47040;-76
2023/08/24 07:56:33;;;;;;;;;9.00;9.00;;;;;;;;5051034;28;45623;-76
2023/08/24 07:58:59;;;;;;;;;11.25;10.00;;;;;;;;5037436;28;45558;-77
2023/08/24 08:01:24;;;;;;;;;7.75;6.75;;;;;;;;5029540;28;45743;-76
2023/08/24 08:03:49;;;;;;;;;8.75;7.75;;;;;;;;5049104;28;45581;-77
2023/08/24 08:06:14;;;;;;;;;9.25;9.25;;;;;;;;5051312;28;45808;-76
2023/08/24 08:08:40;;;;;;;;;10.75;10.75;;;;;;;;5055520;28;45953;-76
2023/08/24 08:11:05;;;;;;;;;10.25;10.25;;;;;;;;5055000;28;45756;-77
2023/08/24 08:13:30;;;;;;;;;11.00;9.25;;;;;;;;5065470;28;45468;-77
2023/08/24 08:16:05;;;;;;;;;10.50;8.50;;;;;;;;5033313;28;45993;-80
2023/08/24 08:18:32;;;;;;;;;12.50;11.25;;;;;;;;5029794;28;45714;-78
2023/08/24 08:20:57;;;;;;;;;12.75;11.75;;;;;;;;5055409;28;45907;-79
2023/08/24 08:23:22;;;;;;;;;12.25;11.75;;;;;;;;5044128;27;45929;-77
2023/08/24 08:25:47;;;;;;;;;10.25;10.25;;;;;;;;5027424;28;45565;-77
2023/08/24 08:28:13;;;;;;;;;10.00;8.25;;;;;;;;5044787;28;45909;-77
2023/08/24 08:30:38;;;;;;;;;12.75;9.75;;;;;;;;5041810;28;45936;-78
2023/08/24 08:33:03;;;;;;;;;11.50;10.50;;;;;;;;5018861;28;46603;-78
2023/08/24 08:35:28;;;;;;;;;11.25;11.25;;;;;;;;5044889;28;45730;-75
2023/08/24 08:37:54;;;;;;;;;11.75;10.00;;;;;;;;5051584;28;45637;-74
2023/08/24 08:40:19;;;;;;;;;12.25;11.50;;;;;;;;5038408;28;45448;-74
2023/08/24 08:42:44;;;;;;;;;9.50;9.25;;;;;;;;5048027;28;46435;-74
2023/08/24 08:45:10;;;;;;;;;9.75;9.75;;;;;;;;5023934;28;45775;-73
2023/08/24 08:47:36;;;;;;;;;9.25;9.25;;;;;;;;5027957;28;45802;-74
2023/08/24 08:50:03;;;;;;;;;12.25;9.50;;;;;;;;5037484;28;45937;-75
2023/08/24 08:52:28;;;;;;;;;12.00;11.75;;;;;;;;5048178;28;45505;-74
2023/08/24 08:54:53;;;;;;;;;10.00;10.00;;;;;;;;5040224;28;45923;-75
2023/08/24 08:57:19;;;;;;;;;10.25;9.00;;;;;;;;5047109;28;45853;-73
2023/08/24 08:59:44;;;;;;;;;11.25;10.25;;;;;;;;5043275;28;45913;-73
2023/08/24 09:02:13;;;;;;;;;10.00;9.00;;;;;;;;5050186;28;45642;-72
2023/08/24 09:04:39;;;;;;;;;11.50;10.00;;;;;;;;5033035;28;46099;-74
2023/08/24 09:07:10;;;;;;;;;9.75;9.75;;;;;;;;5036417;28;45443;-73
2023/08/24 09:09:35;;;;;;;;;9.00;8.00;;;;;;;;5023290;28;45981;-72
2023/08/24 09:12:01;;;;;;;;;9.50;9.50;;;;;;;;5025926;28;46006;-72
2023/08/24 09:14:26;;;;;;;;;11.00;10.00;;;;;;;;5047457;28;45662;-72
2023/08/24 09:16:51;;;;;;;;;7.50;7.50;;;;;;;;5040676;28;46008;-73
2023/08/24 09:19:17;;;;;;;;;12.00;10.50;;;;;;;;5051449;28;45367;-74
2023/08/24 09:21:42;;;;;;;;;10.25;8.50;;;;;;;;5032718;28;48270;-74
2023/08/24 09:24:07;;;;;;;;;10.00;10.00;;;;;;;;5042921;28;45868;-71
2023/08/24 09:26:34;;;;;;;;;11.50;10.00;;;;;;;;5040540;28;45628;-72
2023/08/24 09:29:00;;;;;;;;;16.25;11.75;;;;;;;;5044592;28;45894;-73
2023/08/24 09:31:37;;;;;;;;;10.25;8.75;;;;;;;;5047401;28;46197;-72
2023/08/24 09:34:03;;;;;;;;;11.75;11.75;;;;;;;;5020863;28;45630;-73
2023/08/24 09:36:30;;;;;;;;;10.25;9.00;;;;;;;;5035395;28;45881;-73
2023/08/24 09:38:56;;;;;;;;;9.00;9.00;;;;;;;;5048196;28;45529;-72
2023/08/24 09:41:23;;;;;;;;;12.75;11.50;;;;;;;;5034484;28;46465;-73
2023/08/24 09:43:48;;;;;;;;;10.25;8.50;;;;;;;;5050043;28;45606;-71
2023/08/24 09:46:18;;;;;;;;;10.00;8.75;;;;;;;;5038392;27;45610;-72
2023/08/24 09:48:43;;;;;;;;;12.00;10.00;;;;;;;;5046769;28;45761;-73
2023/08/24 09:51:09;;;;;;;;;10.50;8.75;;;;;;;;5053365;28;45639;-73
2023/08/24 09:53:38;;;;;;;;;10.00;8.25;;;;;;;;5045156;28;46145;-73
2023/08/24 09:56:05;;;;;;;;;9.50;8.50;;;;;;;;5045384;28;45652;-73
2023/08/24 09:58:31;;;;;;;;;12.00;9.00;;;;;;;;5034128;28;47204;-74
2023/08/24 10:00:56;;;;;;;;;11.00;9.25;;;;;;;;5048855;28;45934;-72
2023/08/24 10:03:25;;;;;;;;;11.00;9.50;;;;;;;;5051954;28;46058;-73
2023/08/24 10:05:53;;;;;;;;;10.00;10.00;;;;;;;;5042836;28;45820;-74
2023/08/24 10:08:21;;;;;;;;;12.50;11.25;;;;;;;;5063835;28;45648;-74
2023/08/24 10:10:47;;;;;;;;;14.00;12.75;;;;;;;;5059839;28;47386;-74
2023/08/24 10:13:23;;;;;;;;;23.33;20.00;;;;;;;;5054700;27;45490;-72
2023/08/24 10:15:49;;;;;;;;;11.25;10.00;;;;;;;;5059921;27;45514;-73
2023/08/24 10:18:18;;;;;;;;;8.75;8.75;;;;;;;;5050717;28;45544;-74
2023/08/24 10:20:45;;;;;;;;;7.75;7.75;;;;;;;;5051845;28;46373;-73
2023/08/24 10:23:15;;;;;;;;;9.25;7.00;;;;;;;;5049860;28;45549;-74
2023/08/24 10:25:42;;;;;;;;;5.50;5.50;;;;;;;;5050523;28;45636;-73
2023/08/24 10:28:07;;;;;;;;;10.50;9.50;;;;;;;;5044658;28;45742;-73
2023/08/24 10:30:33;;;;;;;;;9.50;9.50;;;;;;;;5047356;28;46175;-72
2023/08/24 10:32:59;;;;;;;;;9.50;9.50;;;;;;;;5049516;28;45870;-73
2023/08/24 10:35:26;;;;;;;;;10.50;10.00;;;;;;;;5051299;28;45441;-74
2023/08/24 10:37:52;;;;;;;;;10.75;10.75;;;;;;;;5052063;28;45758;-74
2023/08/24 10:40:30;;;;;;;;;8.00;7.50;;;;;;;;5053747;28;45750;-74
2023/08/24 10:42:56;;;;;;;;;10.25;9.75;;;;;;;;5036104;28;45721;-76
2023/08/24 10:45:22;;;;;;;;;13.33;13.33;;;;;;;;5048257;28;45685;-74
2023/08/24 10:47:51;;;;;;;;;14.00;12.00;;;;;;;;5049831;28;45419;-75
2023/08/24 10:50:16;;;;;;;;;15.25;15.25;;;;;;;;5053275;28;45449;-74
2023/08/24 10:52:45;;;;;;;;;5.75;5.75;;;;;;;;5028805;28;45942;-72
2023/08/24 10:55:26;;;;;;;;;9.25;8.50;;;;;;;;5054821;28;45637;-72
2023/08/24 10:58:02;;;;;;;;;12.00;8.75;;;;;;;;5063834;28;45402;-72
2023/08/24 11:00:29;;;;;;;;;9.50;9.50;;;;;;;;5054519;28;47684;-72
2023/08/24 11:02:55;;;;;;;;;10.25;9.25;;;;;;;;5027682;28;46226;-73
2023/08/24 11:05:21;;;;;;;;;12.50;12.50;;;;;;;;5054475;28;45754;-74
2023/08/24 11:07:50;;;;;;;;;11.75;11.25;;;;;;;;5053162;28;45415;-75
2023/08/24 11:10:16;;;;;;;;;4.25;4.25;;;;;;;;5037335;28;46253;-73
2023/08/24 11:13:22;;;;;;;;;5.00;3.50;;;;;;;;5054715;28;45505;-73
2023/08/24 11:15:54;;;;;;;;;7.00;7.00;;;;;;;;4987798;28;45760;-76
2023/08/24 11:18:21;;;;;;;;;9.00;8.25;;;;;;;;5001199;28;45517;-74
2023/08/24 11:20:47;;;;;;;;;8.00;7.00;;;;;;;;5027915;28;45534;-77
2023/08/24 11:23:14;;;;;;;;;7.00;7.00;;;;;;;;5027288;28;45524;-75
2023/08/24 11:25:40;;;;;;;;;7.25;7.25;;;;;;;;5033490;28;45545;-75
2023/08/24 11:28:05;;;;;;;;;10.00;7.25;;;;;;;;5053653;28;45800;-74
2023/08/24 11:30:32;;;;;;;;;7.00;7.00;;;;;;;;5035121;28;46839;-76
2023/08/24 11:32:58;;;;;;;;;7.00;7.00;;;;;;;;5047602;28;45647;-74
2023/08/24 11:35:23;;;;;;;;;4.75;4.75;;;;;;;;5041644;28;45738;-75
2023/08/24 11:37:55;;;;;;;;;6.00;6.00;;;;;;;;5035610;28;46060;-75
2023/08/24 11:40:26;;;;;;;;;9.50;8.00;;;;;;;;5053048;28;45776;-76
2023/08/24 11:42:53;;;;;;;;;7.25;6.00;;;;;;;;5032877;28;45604;-75
2023/08/24 11:45:18;;;;;;;;;6.00;6.00;;;;;;;;5049611;28;45759;-74
2023/08/24 11:47:43;;;;;;;;;5.00;4.75;;;;;;;;5031955;28;47165;-78
2023/08/24 11:50:12;;;;;;;;;8.00;7.00;;;;;;;;5031251;28;47100;-76
2023/08/24 11:52:40;;;;;;;;;4.50;4.50;;;;;;;;5047107;28;45889;-75
2023/08/24 11:55:06;;;;;;;;;7.75;5.75;;;;;;;;5050563;28;45778;-76
2023/08/24 11:57:35;;;;;;;;;7.50;7.00;;;;;;;;5031951;28;45808;-74
2023/08/24 12:00:01;;;;;;;;;8.00;6.50;;;;;;;;5051245;28;46674;-75
2023/08/24 12:02:27;;;;;;;;;7.25;7.25;;;;;;;;5051310;28;45533;-76
2023/08/24 12:04:53;;;;;;;;;7.25;7.25;;;;;;;;5053043;28;45581;-75
2023/08/24 12:07:20;;;;;;;;;10.00;7.25;;;;;;;;5026698;28;45964;-76
2023/08/24 12:09:46;;;;;;;;;5.25;5.25;;;;;;;;5051016;28;46155;-76
2023/08/24 12:12:14;;;;;;;;;6.75;5.75;;;;;;;;5031577;28;45931;-75
2023/08/24 12:14:43;;;;;;;;;4.25;4.25;;;;;;;;5049089;28;45543;-75
2023/08/24 12:17:12;;;;;;;;;4.00;4.00;;;;;;;;5045342;28;45492;-75
2023/08/24 12:19:42;;;;;;;;;6.00;4.00;;;;;;;;5052071;28;45810;-75
2023/08/24 12:22:07;;;;;;;;;5.50;5.25;;;;;;;;5046560;28;45964;-75
2023/08/24 12:24:33;;;;;;;;;5.50;5.50;;;;;;;;5052444;28;45660;-75
2023/08/24 12:26:59;;;;;;;;;4.50;4.25;;;;;;;;5043798;28;45400;-75
2023/08/24 12:29:24;;;;;;;;;7.00;4.50;;;;;;;;5048126;28;45534;-75
2023/08/24 12:31:50;;;;;;;;;6.00;5.00;;;;;;;;5049778;28;45955;-74
2023/08/24 12:34:15;;;;;;;;;5.75;5.75;;;;;;;;5030556;28;45760;-75
2023/08/24 12:36:41;;;;;;;;;5.50;5.50;;;;;;;;5047507;28;45758;-75
2023/08/24 12:39:07;;;;;;;;;9.00;6.50;;;;;;;;5052559;28;45890;-75
2023/08/24 12:41:33;;;;;;;;;8.25;6.50;;;;;;;;5047841;28;45860;-75
2023/08/24 12:43:58;;;;;;;;;8.75;6.50;;;;;;;;5047166;28;46679;-74
2023/08/24 12:46:24;;;;;;;;;7.25;6.25;;;;;;;;5042480;28;45582;-74
2023/08/24 12:48:50;;;;;;;;;3.00;3.00;;;;;;;;5052112;27;46929;-76
2023/08/24 12:51:15;;;;;;;;;5.00;5.00;;;;;;;;5044885;28;45853;-76
2023/08/24 12:53:41;;;;;;;;;4.50;4.50;;;;;;;;5031262;28;45965;-75
2023/08/24 12:56:06;;;;;;;;;7.00;7.00;;;;;;;;5048262;28;45517;-74
2023/08/24 12:58:31;;;;;;;;;6.00;6.00;;;;;;;;5045974;28;45569;-75
2023/08/24 13:00:56;;;;;;;;;8.00;6.00;;;;;;;;5052344;28;45561;-73
2023/08/24 13:03:22;;;;;;;;;8.00;6.00;;;;;;;;5061292;28;45828;-73
2023/08/24 13:05:47;;;;;;;;;4.25;4.25;;;;;;;;5056521;28;45679;-75
2023/08/24 13:08:13;;;;;;;;;5.00;5.00;;;;;;;;5059919;28;45933;-73
2023/08/24 13:10:38;;;;;;;;;8.75;6.75;;;;;;;;5061602;28;45753;-74
2023/08/24 13:13:03;;;;;;;;;4.25;4.25;;;;;;;;5061172;28;45605;-72
2023/08/24 13:15:29;;;;;;;;;8.50;6.25;;;;;;;;5065036;28;45420;-73
2023/08/24 13:17:54;;;;;;;;;6.75;6.75;;;;;;;;5060907;27;45507;-74
2023/08/24 13:20:19;;;;;;;;;8.25;6.00;;;;;;;;5070465;28;45531;-73
2023/08/24 13:22:44;;;;;;;;;10.50;9.25;;;;;;;;5064006;28;45324;-76
2023/08/24 13:25:09;;;;;;;;;5.50;5.50;;;;;;;;5069711;28;45277;-75
2023/08/24 13:27:35;;;;;;;;;7.00;7.00;;;;;;;;5057788;28;46153;-76
2023/08/24 13:30:01;;;;;;;;;10.50;8.25;;;;;;;;5030932;28;45996;-74
2023/08/24 13:32:26;;;;;;;;;11.25;10.00;;;;;;;;5055376;28;45614;-75
2023/08/24 13:34:51;;;;;;;;;8.75;8.00;;;;;;;;5030513;28;45824;-75
2023/08/24 13:37:17;;;;;;;;;6.00;6.00;;;;;;;;5033684;28;45738;-74
2023/08/24 13:39:42;;;;;;;;;7.50;7.50;;;;;;;;5033089;28;45499;-74
2023/08/24 13:42:08;;;;;;;;;9.75;9.75;;;;;;;;5023441;28;45870;-74
2023/08/24 13:44:33;;;;;;;;;11.25;10.25;;;;;;;;5026202;28;45593;-74
2023/08/24 13:46:58;;;;;;;;;16.00;13.75;;;;;;;;5050062;28;46593;-74
2023/08/24 13:49:23;;;;;;;;;11.75;11.00;;;;;;;;5046540;28;46025;-75
2023/08/24 13:51:49;;;;;;;;;11.67;11.00;;;;;;;;5007321;28;45782;-75
2023/08/24 13:54:15;;;;;;;;;11.75;11.75;;;;;;;;5025985;28;46348;-73
2023/08/24 13:56:41;;;;;;;;;12.00;10.25;;;;;;;;5035296;28;45514;-74
2023/08/24 13:59:06;;;;;;;;;17.00;11.25;;;;;;;;5044243;28;45528;-74
2023/08/24 14:01:31;;;;;;;;;10.00;10.00;;;;;;;;5031606;28;45522;-75
2023/08/24 14:03:57;;;;;;;;;13.67;13.67;;;;;;;;5035102;28;46574;-75
2023/08/24 14:06:22;;;;;;;;;10.50;9.75;;;;;;;;5022246;28;47299;-75
2023/08/24 14:08:47;;;;;;;;;11.50;11.25;;;;;;;;5029002;28;45902;-76
2023/08/24 14:11:13;;;;;;;;;13.50;12.25;;;;;;;;5037181;28;45489;-74
2023/08/24 14:13:38;;;;;;;;;9.25;9.25;;;;;;;;5040859;28;46191;-75
2023/08/24 14:16:04;;;;;;;;;11.50;11.50;;;;;;;;5035782;28;46373;-76
2023/08/24 14:18:30;;;;;;;;;12.25;11.25;;;;;;;;5038507;28;45711;-77
2023/08/24 14:20:55;;;;;;;;;12.25;12.25;;;;;;;;5016689;28;45800;-78
2023/08/24 14:23:20;;;;;;;;;15.75;13.75;;;;;;;;4997801;28;47252;-75
2023/08/24 14:25:46;;;;;;;;;14.00;13.00;;;;;;;;5026559;28;46618;-76